Weather reports worldwide

Advertisment
Inverness/Dalcross, United Kingdom (3059): temperature & dewpoint: 11.11.2018 03:00:00 - 17.11.2018 03:00:00 (GMT)Inverness/Dalcross, United Kingdom (3059): wind speed: 11.11.2018 03:00:00 - 17.11.2018 03:00:00 (GMT)Inverness/Dalcross, United Kingdom (3059): wind direction: 11.11.2018 03:00:00 - 17.11.2018 03:00:00 (GMT)Inverness/Dalcross, United Kingdom (3059): visibility: 11.11.2018 03:00:00 - 17.11.2018 03:00:00 (GMT)
Date & Time tt [°C] td [°C] ff [km/h] ff [kn] dd vv [km]
17.11.2018 03:00:00 0,0 -1,0 0 0 N 10
17.11.2018 02:00:00 0,0 0,0 2 1 SW 0,2
17.11.2018 01:00:00 1,0 1,0 2 1 - 3,0
17.11.2018 00:00:00 2,0 1,0 0 0 N 4,3
16.11.2018 23:00:00 3,0 2,0 2 1 - 4,8
16.11.2018 22:00:00 3,0 2,0 2 1 - 10
16.11.2018 21:00:00 7,0 5,0 0 0 N 10
16.11.2018 20:00:00 7,0 6,0 8 4 NE 10
16.11.2018 19:00:00 9,0 7,0 9 5 E 10
16.11.2018 18:00:00 11,0 8,0 9 5 SE 10
16.11.2018 17:00:00 11,0 8,0 11 6 S 10
16.11.2018 16:00:00 13,0 9,0 18 10 SSE 10
16.11.2018 15:00:00 12,0 9,0 9 5 SSE 10
16.11.2018 14:00:00 13,0 8,0 4 2 NE 10
16.11.2018 13:00:00 12,0 8,0 5 3 N 10
16.11.2018 12:00:00 12,0 8,0 4 2 - 10
16.11.2018 11:00:00 10,0 6,0 8 4 ENE 10
16.11.2018 10:00:00 9,0 5,0 0 0 N 10
16.11.2018 09:00:00 5,0 3,0 8 4 S 10
16.11.2018 08:00:00 5,0 2,0 5 3 E 10
16.11.2018 07:00:00 3,0 2,0 2 1 - 10
16.11.2018 06:00:00 6,0 3,0 13 7 SSE 10
16.11.2018 05:00:00 5,0 3,0 13 7 SSE 10
16.11.2018 04:00:00 3,0 1,0 8 4 S 10
16.11.2018 03:00:00 6,0 3,0 8 4 SE 10
16.11.2018 02:00:00 8,0 4,0 16 9 S 10
16.11.2018 01:00:00 9,0 5,0 24 13 SSW 10
16.11.2018 00:00:00 9,0 6,0 22 12 SW 10
15.11.2018 23:00:00 8,0 6,0 15 8 S 10
15.11.2018 22:00:00 10,0 7,0 15 8 SW 10
15.11.2018 21:00:00 10,0 6,0 21 11 SSW 10
15.11.2018 20:00:00 10,0 7,0 21 11 SW 10
15.11.2018 19:00:00 10,0 7,0 37 20 SW 10
15.11.2018 18:00:00 14,0 8,0 29 16 SSW 10
15.11.2018 17:00:00 13,0 6,0 8 4 NNE 10
15.11.2018 16:00:00 13,0 6,0 11 6 W 10
15.11.2018 15:00:00 14,0 5,0 21 11 SSW 10
15.11.2018 14:00:00 15,0 7,0 35 19 S 10
15.11.2018 13:00:00 14,0 9,0 13 7 S 10
15.11.2018 12:00:00 14,0 10,0 16 9 SSE 10
15.11.2018 11:00:00 14,0 10,0 15 8 S 10
15.11.2018 10:00:00 15,0 10,0 21 11 SSW 10
15.11.2018 09:00:00 14,0 10,0 15 8 SSW 10
15.11.2018 08:00:00 13,0 10,0 15 8 S 10
15.11.2018 07:00:00 11,0 10,0 4 2 E 10
15.11.2018 06:00:00 13,0 11,0 9 5 SSW 10
15.11.2018 05:00:00 13,0 11,0 13 7 SW 10
15.11.2018 04:00:00 13,0 11,0 11 6 SW 10
15.11.2018 03:00:00 14,0 10,0 13 7 S 10
15.11.2018 02:00:00 14,0 10,0 9 5 SW 10
15.11.2018 01:00:00 15,0 10,0 22 12 SSW 10
15.11.2018 00:00:00 15,0 10,0 16 9 SSW 10
14.11.2018 23:00:00 15,0 10,0 15 8 WSW 10
14.11.2018 22:00:00 14,0 10,0 11 6 WSW 10
14.11.2018 21:00:00 15,0 11,0 26 14 WSW 10
14.11.2018 20:00:00 15,0 11,0 18 10 SW 10
14.11.2018 19:00:00 14,0 11,0 16 9 SSW 10
14.11.2018 18:00:00 13,0 11,0 13 7 SSW 10
14.11.2018 17:00:00 14,0 12,0 11 6 SSW 10
14.11.2018 16:00:00 15,0 12,0 18 10 SSW 10
14.11.2018 15:00:00 15,0 12,0 29 16 SSW 10
14.11.2018 14:00:00 14,0 12,0 9 5 S 10
14.11.2018 13:00:00 13,0 10,0 4 2 - 10
14.11.2018 12:00:00 13,0 10,0 2 1 - 10
14.11.2018 11:00:00 13,0 10,0 0 0 N 10
14.11.2018 10:00:00 12,0 9,0 5 3 S 10
14.11.2018 09:00:00 12,0 9,0 8 4 SE 10
14.11.2018 08:00:00 12,0 9,0 5 3 SSE 10
14.11.2018 07:00:00 11,0 8,0 5 3 S 10
14.11.2018 06:00:00 10,0 8,0 5 3 - 10
14.11.2018 05:00:00 11,0 8,0 18 10 S 10
14.11.2018 04:00:00 12,0 8,0 13 7 S 10
14.11.2018 03:00:00 9,0 7,0 2 1 - 10
14.11.2018 02:00:00 10,0 7,0 13 7 SSW 10
14.11.2018 01:00:00 11,0 7,0 4 2 - 10
14.11.2018 00:00:00 10,0 7,0 9 5 SW 10
13.11.2018 23:00:00 10,0 6,0 4 2 - 10
13.11.2018 22:00:00 8,0 5,0 2 1 - 10
13.11.2018 21:00:00 8,0 5,0 11 6 W 10
13.11.2018 20:00:00 8,0 4,0 8 4 WSW 10
13.11.2018 19:00:00 6,0 4,0 11 6 S 10
13.11.2018 18:00:00 7,0 4,0 9 5 SSE 10
13.11.2018 17:00:00 9,0 5,0 22 12 SW 10
13.11.2018 16:00:00 9,0 5,0 11 6 SW 10
13.11.2018 15:00:00 10,0 6,0 15 8 SW 10
13.11.2018 14:00:00 10,0 7,0 21 11 WSW 10
13.11.2018 13:00:00 10,0 8,0 21 11 SW 10
13.11.2018 12:00:00 10,0 7,0 18 10 SW 10
13.11.2018 11:00:00 9,0 8,0 13 7 SW 10
13.11.2018 10:00:00 7,0 6,0 13 7 SW 10
13.11.2018 09:00:00 4,0 4,0 9 5 SW 10
13.11.2018 08:00:00 3,0 2,0 18 10 SW 10
13.11.2018 07:00:00 1,0 1,0 5 3 - 10
13.11.2018 06:00:00 1,0 1,0 2 1 - 10
13.11.2018 05:00:00 -1,0 -1,0 2 1 WSW 10
13.11.2018 04:00:00 -1,0 -1,0 0 0 N 10
13.11.2018 03:00:00 0,0 -1,0 2 1 - 10
13.11.2018 02:00:00 1,0 1,0 5 3 - 10
13.11.2018 01:00:00 0,0 0,0 2 1 - 10
13.11.2018 00:00:00 3,0 2,0 2 1 - 10
12.11.2018 23:00:00 4,0 3,0 0 0 N 10
12.11.2018 22:00:00 7,0 5,0 4 2 - 10
12.11.2018 21:00:00 8,0 5,0 9 5 SW 10
12.11.2018 20:00:00 8,0 6,0 9 5 SW 10
12.11.2018 19:00:00 8,0 5,0 8 4 SW 10
12.11.2018 18:00:00 9,0 6,0 13 7 S 10
12.11.2018 17:00:00 10,0 6,0 15 8 S 10
12.11.2018 16:00:00 10,0 6,0 11 6 SSW 10
12.11.2018 15:00:00 11,0 6,0 5 3 - 10
12.11.2018 14:00:00 11,0 7,0 15 8 S 10
12.11.2018 13:00:00 12,0 6,0 9 5 S 10
12.11.2018 12:00:00 12,0 7,0 8 4 SSW 10
12.11.2018 11:00:00 11,0 7,0 15 8 S 10
12.11.2018 10:00:00 10,0 6,0 15 8 S 10
12.11.2018 09:00:00 9,0 6,0 22 12 S 10
12.11.2018 08:00:00 2,0 2,0 0 0 N 10
12.11.2018 07:00:00 2,0 2,0 2 1 - 10
12.11.2018 06:00:00 3,0 2,0 4 2 - 10
12.11.2018 05:00:00 7,0 5,0 11 6 ESE 10
12.11.2018 04:00:00 7,0 5,0 13 7 SE 10
12.11.2018 03:00:00 5,0 4,0 4 2 S 10
12.11.2018 02:00:00 6,0 4,0 9 5 SSE 10
12.11.2018 01:00:00 3,0 3,0 0 0 N 10
12.11.2018 00:00:00 2,0 2,0 0 0 N 10
11.11.2018 23:00:00 2,0 1,0 5 3 - 10
11.11.2018 22:00:00 0,0 0,0 0 0 N 10
11.11.2018 21:00:00 0,0 0,0 4 2 - 10
11.11.2018 20:00:00 2,0 1,0 2 1 - 10
11.11.2018 19:00:00 2,0 2,0 5 3 SSW 10
11.11.2018 18:00:00 3,0 3,0 0 0 N 10
11.11.2018 17:00:00 5,0 4,0 5 3 SW 10
11.11.2018 16:00:00 6,0 5,0 5 3 SW 6
11.11.2018 15:00:00 7,0 6,0 2 1 - 10
11.11.2018 14:00:00 7,0 6,0 5 3 ENE 10
11.11.2018 13:00:00 6,0 5,0 4 2 E 10
11.11.2018 12:00:00 5,0 4,0 2 1 - 10
11.11.2018 11:00:00 5,0 4,0 2 1 - 0,3
11.11.2018 10:00:00 3,0 2,0 4 2 - 0,6
11.11.2018 09:00:00 0,0 0,0 2 1 - 0,3
11.11.2018 08:00:00 0,0 -1,0 4 2 - 0,1
11.11.2018 07:00:00 -1,0 -1,0 2 1 - 10
11.11.2018 06:00:00 -1,0 -2,0 0 0 N 10
11.11.2018 05:00:00 1,0 0,0 5 3 - 10
11.11.2018 04:00:00 0,0 0,0 4 2 SSE 10
11.11.2018 03:00:00 2,0 1,0 2 1 SE 9

tt = temperature
td = dewpoint
ff = wind speed
dd = wind direction
vv = visibility

Next stations